Дата Пункты Температура Давл., мм. Влажн., % Ветер Погодные явления
Воздуха Воды Направл. Скорость
23.04.16 03:00 Одесса 12.0 9.0 755 93 Пд-С 3 15 часов
23.04.16 12:00 Одесса 12.0 8.0 756 90 С 2 12 часов
23.04.16 09:00 Одесса 10.0 8.0 756 96 С 2 09 часов
23.04.16 06:00 Одесса 8.0 9.0 755 97 Пн-С 1 06 часов
23.04.16 03:00 Одесса 9.0 9.0 755 89 Пд-З 3 03 часа
22.04.16 09:00 Одесса 11.0 9.0 756 68 Пн-З 4 21 час
22.04.16 06:00 Одесса 13.0 10.0 756 63 Пд 4 18 часов
22.04.16 03:00 Одесса 15.0 10.0 758 71 Пд-З 4 15 часов
22.04.16 12:00 Одесса 14.0 11.0 759 74 Пд 5 12 часов
22.04.16 09:00 Одесса 14.0 11.0 761 45 З 2 09 часов
22.04.16 06:00 Одесса 7.0 12.0 761 83 З 2 06 часов
22.04.16 03:00 Одесса 5.0 12.0 763 79 З 2 03 часа
21.04.16 09:00 Одесса 8.0 12.0 763 59 З 1 21 час
21.04.16 06:00 Одесса 12.0 12.0 762 45 Пн-З 3 18 часов
21.04.16 03:00 Одесса 11.0 12.0 762 52 Пн-З 3 15 часов
21.04.16 12:00 Одесса 10.0 13.0 761 62 Пн-З 3 12 часов
21.04.16 09:00 Одесса 9.0 13.0 761 76 З 2 09 часов
21.04.16 06:00 Одесса 5.0 14.0 760 87 З 3 06 часов
21.04.16 03:00 Одесса 6.0 14.0 758 83 З 3 03 часа
20.04.16 09:00 Одесса 8.0 14.0 756 96 З 2 21 час
Количество строк
351 352 353 354 355 356 357 358 359 360
Page 355 of 511